createdAt,value
2024-02-08T00:02:12.042Z,3.67
2024-02-08T00:04:59.712Z,3.93
2024-02-08T00:07:47.230Z,4.30
2024-02-08T00:10:34.829Z,4.47
2024-02-08T00:13:22.416Z,4.20
2024-02-08T00:16:12.648Z,4.20
2024-02-08T00:19:03.497Z,4.50
2024-02-08T00:21:51.408Z,3.80
2024-02-08T00:24:38.654Z,4.07
2024-02-08T00:27:27.387Z,3.10
2024-02-08T00:30:16.829Z,3.70
2024-02-08T00:33:04.159Z,3.33
2024-02-08T00:35:52.898Z,3.27
2024-02-08T00:38:40.126Z,4.13
2024-02-08T00:41:27.671Z,3.30
2024-02-08T00:44:15.109Z,3.80
2024-02-08T00:47:02.670Z,3.90
2024-02-08T00:49:50.473Z,3.10
2024-02-08T00:52:39.611Z,5.00
2024-02-08T00:55:27.515Z,4.03
2024-02-08T00:58:17.084Z,3.67
2024-02-08T01:01:04.465Z,4.37
2024-02-08T01:03:51.971Z,3.30
2024-02-08T01:06:41.712Z,4.03
2024-02-08T01:09:31.047Z,3.97
2024-02-08T01:12:20.085Z,3.13
2024-02-08T01:15:12.290Z,3.20
2024-02-08T01:18:02.716Z,3.40
2024-02-08T01:20:51.124Z,3.90
2024-02-08T01:23:39.174Z,3.37
2024-02-08T01:26:27.707Z,3.23
2024-02-08T01:29:15.479Z,3.77
2024-02-08T01:32:03.222Z,3.43
2024-02-08T01:34:50.914Z,3.80
2024-02-08T01:37:39.694Z,3.43
2024-02-08T01:40:27.692Z,3.77
2024-02-08T01:43:16.385Z,4.07
2024-02-08T01:46:04.461Z,3.80
2024-02-08T01:48:52.234Z,4.30
2024-02-08T01:51:41.449Z,4.20
2024-02-08T01:54:29.344Z,3.97
2024-02-08T01:57:17.274Z,4.33
2024-02-08T02:00:07.471Z,4.00
2024-02-08T02:03:03.455Z,4.67
2024-02-08T02:05:50.816Z,4.13
2024-02-08T02:08:39.789Z,3.90
2024-02-08T02:11:36.866Z,4.17
2024-02-08T02:14:30.838Z,4.30
2024-02-08T02:17:20.491Z,4.90
2024-02-08T02:20:08.802Z,5.00
2024-02-08T02:22:59.814Z,5.13
2024-02-08T02:25:49.611Z,4.07
2024-02-08T02:28:38.060Z,4.80
2024-02-08T02:31:26.012Z,4.30
2024-02-08T02:34:13.351Z,3.83
2024-02-08T02:37:01.378Z,5.13
2024-02-08T02:39:50.457Z,4.03
2024-02-08T02:42:37.938Z,5.47
2024-02-08T02:45:30.491Z,3.77
2024-02-08T02:48:18.721Z,4.10
2024-02-08T02:51:06.884Z,4.07
2024-02-08T02:53:54.652Z,4.23
2024-02-08T02:56:44.396Z,4.03
2024-02-08T02:59:32.513Z,4.03
2024-02-08T03:02:29.303Z,2.80
2024-02-08T03:05:18.970Z,3.53
2024-02-08T03:08:07.628Z,3.23
2024-02-08T03:10:57.428Z,3.33
2024-02-08T03:13:47.975Z,3.07
2024-02-08T03:16:37.678Z,3.13
2024-02-08T03:19:25.528Z,2.80
2024-02-08T03:22:12.787Z,3.47
2024-02-08T03:25:00.370Z,3.33
2024-02-08T03:27:52.401Z,2.67
2024-02-08T03:30:41.712Z,3.20
2024-02-08T03:33:29.254Z,2.90
2024-02-08T03:36:16.763Z,2.80
2024-02-08T03:39:05.187Z,3.27
2024-02-08T03:41:53.891Z,3.30
2024-02-08T03:44:41.300Z,2.57
2024-02-08T03:47:33.377Z,3.10
2024-02-08T03:50:20.908Z,3.53
2024-02-08T03:53:13.411Z,2.73
2024-02-08T03:56:01.279Z,2.70
2024-02-08T03:58:48.824Z,3.70
2024-02-08T04:01:36.569Z,3.20
2024-02-08T04:04:30.346Z,3.07
2024-02-08T04:07:21.348Z,3.13
2024-02-08T04:10:20.353Z,2.80
2024-02-08T04:13:21.490Z,3.30
2024-02-08T04:16:26.274Z,2.97
2024-02-08T04:19:31.019Z,3.77
2024-02-08T04:22:37.443Z,3.60
2024-02-08T04:25:41.881Z,3.47
2024-02-08T04:28:43.067Z,3.37
2024-02-08T04:31:47.776Z,3.47
2024-02-08T04:34:57.523Z,3.80
2024-02-08T04:38:03.638Z,3.57
2024-02-08T04:41:08.178Z,3.57
2024-02-08T04:44:27.178Z,3.47
2024-02-08T04:47:31.959Z,3.87
2024-02-08T04:50:36.601Z,4.00
2024-02-08T04:53:38.778Z,4.00
2024-02-08T04:56:26.254Z,4.17
2024-02-08T04:59:21.942Z,4.53
2024-02-08T05:02:11.170Z,4.30
2024-02-08T05:04:59.067Z,5.73
2024-02-08T05:07:46.311Z,5.57
2024-02-08T05:10:36.202Z,5.97
2024-02-08T05:13:25.584Z,6.60
2024-02-08T05:16:16.393Z,5.10
2024-02-08T05:19:05.205Z,6.13
2024-02-08T05:21:52.704Z,5.50
2024-02-08T05:24:39.921Z,5.10
2024-02-08T05:27:28.933Z,5.00
2024-02-08T05:30:21.198Z,4.90
2024-02-08T05:33:10.119Z,4.77
2024-02-08T05:35:58.714Z,4.27
2024-02-08T05:38:46.937Z,4.67
2024-02-08T05:41:34.661Z,4.80
2024-02-08T05:44:23.634Z,4.57
2024-02-08T05:47:12.041Z,4.73
2024-02-08T05:50:01.878Z,4.57
2024-02-08T05:52:52.885Z,3.90
2024-02-08T05:55:41.340Z,4.87
2024-02-08T05:58:28.740Z,4.53
2024-02-08T06:01:21.357Z,4.47
2024-02-08T06:04:10.892Z,5.40
2024-02-08T06:07:02.600Z,4.43
2024-02-08T06:10:09.183Z,5.23
2024-02-08T06:13:00.772Z,6.17
2024-02-08T06:15:52.063Z,5.27
2024-02-08T06:18:46.358Z,6.07
2024-02-08T06:21:41.747Z,6.77
2024-02-08T06:24:33.401Z,6.57
2024-02-08T06:27:27.061Z,6.17
2024-02-08T06:30:19.786Z,6.37
2024-02-08T06:33:17.821Z,6.80
2024-02-08T06:36:08.860Z,7.03
2024-02-08T06:38:56.300Z,7.03
2024-02-08T06:41:53.568Z,6.30
2024-02-08T06:44:54.234Z,6.30
2024-02-08T06:47:58.559Z,5.33
2024-02-08T06:51:04.379Z,4.87
2024-02-08T06:54:11.523Z,5.97
2024-02-08T06:57:16.079Z,6.07
2024-02-08T07:00:26.004Z,5.57
2024-02-08T07:03:30.900Z,5.93
2024-02-08T07:06:41.138Z,6.03
2024-02-08T07:09:46.959Z,6.70
2024-02-08T07:12:51.564Z,6.40
2024-02-08T07:15:56.068Z,7.00
2024-02-08T07:19:06.803Z,6.63
2024-02-08T07:22:13.219Z,7.50
2024-02-08T07:25:19.224Z,7.07
2024-02-08T07:28:24.041Z,7.23
2024-02-08T07:31:28.510Z,7.93
2024-02-08T07:34:33.429Z,7.07
2024-02-08T07:37:26.397Z,7.90
2024-02-08T07:40:26.603Z,8.10
2024-02-08T07:43:20.998Z,8.53
2024-02-08T07:46:17.704Z,8.53
2024-02-08T07:49:07.179Z,8.03
2024-02-08T07:51:59.487Z,8.00
2024-02-08T07:54:47.921Z,7.87
2024-02-08T07:57:36.994Z,7.83
2024-02-08T08:00:43.051Z,8.03
2024-02-08T08:03:36.441Z,8.07
2024-02-08T08:06:24.767Z,8.30
2024-02-08T08:09:22.086Z,8.80
2024-02-08T08:12:10.147Z,8.57
2024-02-08T08:15:18.254Z,9.37
2024-02-08T08:18:22.749Z,10.00
2024-02-08T08:21:10.356Z,9.37
2024-02-08T08:24:01.747Z,9.33
2024-02-08T08:26:52.788Z,9.80
2024-02-08T08:29:45.422Z,9.93
2024-02-08T08:32:51.900Z,10.70
2024-02-08T08:35:48.358Z,10.73
2024-02-08T08:38:45.674Z,10.40
2024-02-08T08:41:33.140Z,10.20
2024-02-08T08:44:20.619Z,9.77
2024-02-08T08:47:08.081Z,10.70
2024-02-08T08:49:57.292Z,10.60
2024-02-08T08:52:48.787Z,9.77
2024-02-08T08:55:40.864Z,11.10
2024-02-08T08:58:29.815Z,9.87
2024-02-08T09:01:19.945Z,10.77
2024-02-08T09:04:27.039Z,11.73
2024-02-08T09:07:18.230Z,11.00
2024-02-08T09:10:07.049Z,10.67
2024-02-08T09:13:08.221Z,11.07
2024-02-08T09:16:17.961Z,9.83
2024-02-08T09:19:13.714Z,10.57
2024-02-08T09:22:03.798Z,10.67
2024-02-08T09:24:53.987Z,10.27
2024-02-08T09:27:48.310Z,11.57
2024-02-08T09:30:41.411Z,10.30
2024-02-08T09:33:46.967Z,12.13
2024-02-08T09:36:35.803Z,11.13
2024-02-08T09:39:46.224Z,11.57
2024-02-08T09:42:39.276Z,10.77
2024-02-08T09:45:46.854Z,12.23
2024-02-08T09:48:44.669Z,10.57
2024-02-08T09:51:36.752Z,11.57
2024-02-08T09:54:30.641Z,12.13
2024-02-08T09:57:24.871Z,12.43
2024-02-08T10:00:30.757Z,11.77
2024-02-08T10:03:33.005Z,11.63
2024-02-08T10:06:25.938Z,13.00
2024-02-08T10:09:29.021Z,11.73
2024-02-08T10:12:21.822Z,13.70
2024-02-08T10:15:15.410Z,12.87
2024-02-08T10:18:12.142Z,12.40
2024-02-08T10:21:13.651Z,12.70
2024-02-08T10:24:14.066Z,13.13
2024-02-08T10:27:02.374Z,13.30
2024-02-08T10:29:59.913Z,12.30
2024-02-08T10:32:53.194Z,12.60
2024-02-08T10:35:42.064Z,11.93
2024-02-08T10:38:33.712Z,12.97
2024-02-08T10:41:21.278Z,13.47
2024-02-08T10:44:19.290Z,12.47
2024-02-08T10:47:09.216Z,13.23
2024-02-08T10:49:57.303Z,12.80
2024-02-08T10:52:50.173Z,13.80
2024-02-08T10:55:39.463Z,12.53
2024-02-08T10:58:51.087Z,12.90
2024-02-08T11:02:01.961Z,12.60
2024-02-08T11:05:09.609Z,12.03
2024-02-08T11:07:59.435Z,12.10
2024-02-08T11:10:48.108Z,11.27
2024-02-08T11:13:39.411Z,12.80
2024-02-08T11:16:34.777Z,11.93
2024-02-08T11:19:23.861Z,11.80
2024-02-08T11:22:20.060Z,11.73
2024-02-08T11:25:24.688Z,12.83
2024-02-08T11:28:22.917Z,12.37
2024-02-08T11:31:15.118Z,13.50
2024-02-08T11:34:15.649Z,11.60
2024-02-08T11:37:17.423Z,13.93
2024-02-08T11:40:10.805Z,11.73
2024-02-08T11:43:08.944Z,11.53
2024-02-08T11:45:57.888Z,12.87
2024-02-08T11:48:45.858Z,12.83
2024-02-08T11:51:35.927Z,12.83
2024-02-08T11:54:29.696Z,12.80
2024-02-08T11:57:21.762Z,13.47
2024-02-08T12:00:19.416Z,13.67
2024-02-08T12:03:09.120Z,11.97
2024-02-08T12:05:58.603Z,13.00
2024-02-08T12:08:56.412Z,12.33
2024-02-08T12:11:45.949Z,12.77
2024-02-08T12:14:33.357Z,12.63
2024-02-08T12:23:32.205Z,12.00
2024-02-08T12:26:24.617Z,11.43
2024-02-08T12:29:17.986Z,12.20
2024-02-08T12:32:17.335Z,11.37
2024-02-08T12:35:14.948Z,12.63
2024-02-08T12:38:04.676Z,12.10
2024-02-08T12:40:52.215Z,11.80
2024-02-08T12:43:43.997Z,12.20
2024-02-08T12:46:32.765Z,11.17
2024-02-08T12:49:20.552Z,12.67
2024-02-08T12:52:10.943Z,11.93
2024-02-08T12:55:01.530Z,11.20
2024-02-08T12:57:59.195Z,11.10
2024-02-08T13:01:00.250Z,11.60
2024-02-08T13:03:47.814Z,10.63
2024-02-08T13:06:36.404Z,9.97
2024-02-08T13:09:28.417Z,12.20
2024-02-08T13:12:18.690Z,11.37
2024-02-08T13:15:08.342Z,10.80
2024-02-08T13:17:58.268Z,11.70
2024-02-08T13:20:45.928Z,11.73
2024-02-08T13:23:36.083Z,10.97
2024-02-08T13:26:30.034Z,10.67
2024-02-08T13:29:20.829Z,9.87
2024-02-08T13:32:08.813Z,10.13
2024-02-08T13:34:59.589Z,10.37
2024-02-08T13:37:51.204Z,10.73
2024-02-08T13:40:44.082Z,11.97
2024-02-08T13:43:32.223Z,11.83
2024-02-08T13:46:19.821Z,11.13
2024-02-08T13:49:07.916Z,10.93
2024-02-08T13:51:56.728Z,9.87
2024-02-08T13:54:47.067Z,10.10
2024-02-08T13:57:34.625Z,10.63
2024-02-08T14:00:28.178Z,10.93
2024-02-08T14:03:20.932Z,11.47
2024-02-08T14:06:11.117Z,11.03
2024-02-08T14:09:20.139Z,10.40
2024-02-08T14:12:09.774Z,10.47
2024-02-08T14:14:59.168Z,9.93
2024-02-08T14:17:55.375Z,10.07
2024-02-08T14:20:45.037Z,10.20
2024-02-08T14:23:34.328Z,10.33
2024-02-08T14:26:37.932Z,11.47
2024-02-08T14:29:25.402Z,9.43
2024-02-08T14:32:21.024Z,9.63
2024-02-08T14:35:17.844Z,10.03
2024-02-08T14:38:07.052Z,9.97
2024-02-08T14:40:55.163Z,10.63
2024-02-08T14:43:47.818Z,11.23
2024-02-08T14:46:35.414Z,11.20
2024-02-08T14:49:28.597Z,12.50
2024-02-08T14:52:25.910Z,12.63
2024-02-08T14:55:22.012Z,13.90
2024-02-08T14:58:12.281Z,12.97
2024-02-08T15:01:09.772Z,13.23
2024-02-08T15:03:59.767Z,11.57
2024-02-08T15:07:07.316Z,11.60
2024-02-08T15:09:58.418Z,11.53
2024-02-08T15:12:54.071Z,10.57
2024-02-08T15:15:41.603Z,11.47
2024-02-08T15:18:40.084Z,11.73
2024-02-08T15:21:36.067Z,11.63
2024-02-08T15:24:23.296Z,11.47
2024-02-08T15:27:19.278Z,11.33
2024-02-08T15:30:12.307Z,11.27
2024-02-08T15:33:18.052Z,10.10
2024-02-08T15:36:11.762Z,11.30
2024-02-08T15:39:02.492Z,9.77
2024-02-08T15:41:53.718Z,12.10
2024-02-08T15:44:46.577Z,11.77
2024-02-08T15:47:35.703Z,11.07
2024-02-08T15:50:34.048Z,10.07
2024-02-08T15:53:24.624Z,10.63
2024-02-08T15:56:14.149Z,11.00
2024-02-08T15:59:04.404Z,10.50
2024-02-08T16:01:52.998Z,10.70
2024-02-08T16:04:46.322Z,10.60
2024-02-08T16:07:34.427Z,10.77
2024-02-08T16:10:25.512Z,9.90
2024-02-08T16:13:14.724Z,10.10
2024-02-08T16:16:09.259Z,10.03
2024-02-08T16:19:03.366Z,9.70
2024-02-08T16:21:50.991Z,9.27
2024-02-08T16:24:42.906Z,9.53
2024-02-08T16:27:31.649Z,7.37
2024-02-08T16:30:29.609Z,7.90
2024-02-08T16:33:20.927Z,7.80
2024-02-08T16:36:22.690Z,7.33
2024-02-08T16:39:29.501Z,8.00
2024-02-08T16:42:24.470Z,7.37
2024-02-08T16:45:19.818Z,7.50
2024-02-08T16:48:15.202Z,7.33
2024-02-08T16:51:10.906Z,6.80
2024-02-08T16:54:18.705Z,7.10
2024-02-08T16:57:08.626Z,7.63
2024-02-08T16:59:56.008Z,8.23
2024-02-08T17:03:02.017Z,7.70
2024-02-08T17:05:54.610Z,8.10
2024-02-08T17:08:51.713Z,9.10
2024-02-08T17:11:41.710Z,9.40
2024-02-08T17:14:37.690Z,8.67
2024-02-08T17:17:36.242Z,9.80
2024-02-08T17:20:38.982Z,9.77
2024-02-08T17:23:29.692Z,9.37
2024-02-08T17:26:37.757Z,8.90
2024-02-08T17:29:33.039Z,9.53
2024-02-08T17:32:25.529Z,9.13
2024-02-08T17:35:17.058Z,9.30
2024-02-08T17:38:06.959Z,8.03
2024-02-08T17:40:56.062Z,9.50
2024-02-08T17:43:50.828Z,9.43
2024-02-08T17:46:39.597Z,8.57
2024-02-08T17:49:27.413Z,6.50
2024-02-08T17:52:15.778Z,6.83
2024-02-08T17:55:05.565Z,6.70
2024-02-08T17:57:57.182Z,5.10
2024-02-08T18:00:49.468Z,5.53
2024-02-08T18:03:37.430Z,6.60
2024-02-08T18:06:25.202Z,5.90
2024-02-08T18:09:18.190Z,6.67
2024-02-08T18:12:13.646Z,5.60
2024-02-08T18:15:12.294Z,5.17
2024-02-08T18:18:05.942Z,5.33
2024-02-08T18:20:58.543Z,6.00
2024-02-08T18:23:47.564Z,4.63
2024-02-08T18:26:35.388Z,3.73
2024-02-08T18:29:24.629Z,3.80
2024-02-08T18:32:12.654Z,4.27
2024-02-08T18:35:03.485Z,4.57
2024-02-08T18:37:54.067Z,3.90
2024-02-08T18:40:41.684Z,3.73
2024-02-08T18:43:29.549Z,4.10
2024-02-08T18:46:19.149Z,4.70
2024-02-08T18:49:09.926Z,3.40
2024-02-08T18:51:58.341Z,4.13
2024-02-08T18:54:48.042Z,4.40
2024-02-08T18:57:37.127Z,4.80
2024-02-08T19:00:25.518Z,4.30
2024-02-08T19:03:16.888Z,3.90
2024-02-08T19:06:09.544Z,3.77
2024-02-08T19:08:56.778Z,3.87
2024-02-08T19:11:45.908Z,4.47
2024-02-08T19:14:33.753Z,4.80
2024-02-08T19:17:22.751Z,4.10
2024-02-08T19:20:20.064Z,4.50
2024-02-08T19:23:07.727Z,4.60
2024-02-08T19:25:58.696Z,4.93
2024-02-08T19:28:46.761Z,4.17
2024-02-08T19:31:38.221Z,4.57
2024-02-08T19:34:30.271Z,4.27
2024-02-08T19:37:22.143Z,4.70
2024-02-08T19:40:12.137Z,4.50
2024-02-08T19:43:04.514Z,4.23
2024-02-08T19:45:54.801Z,4.77
2024-02-08T19:48:42.786Z,4.83
2024-02-08T19:51:32.100Z,4.97
2024-02-08T19:54:23.880Z,4.77
2024-02-08T19:57:13.957Z,5.50
2024-02-08T20:00:01.558Z,5.30
2024-02-08T20:02:54.265Z,5.13
2024-02-08T20:05:43.167Z,5.40
2024-02-08T20:08:31.550Z,6.10
2024-02-08T20:11:20.636Z,5.60
2024-02-08T20:14:08.407Z,5.80
2024-02-08T20:16:58.228Z,5.67
2024-02-08T20:19:46.236Z,5.53
2024-02-08T20:22:34.013Z,5.10
2024-02-08T20:25:26.177Z,5.37
2024-02-08T20:28:16.805Z,4.73
2024-02-08T20:31:08.756Z,5.50
2024-02-08T20:33:57.451Z,5.67
2024-02-08T20:36:44.655Z,6.13
2024-02-08T20:39:34.572Z,6.00
2024-02-08T20:42:25.109Z,5.17
2024-02-08T20:45:13.725Z,5.50
2024-02-08T20:48:09.056Z,6.13
2024-02-08T20:50:57.074Z,6.37
2024-02-08T20:53:44.658Z,4.73
2024-02-08T20:56:37.702Z,5.50
2024-02-08T20:59:28.870Z,5.87
2024-02-08T21:02:17.755Z,5.17
2024-02-08T21:05:06.869Z,5.17
2024-02-08T21:07:54.221Z,4.90
2024-02-08T21:10:43.135Z,5.03
2024-02-08T21:13:31.074Z,4.80
2024-02-08T21:16:21.114Z,5.03
2024-02-08T21:19:11.554Z,4.50
2024-02-08T21:21:59.371Z,4.77
2024-02-08T21:24:47.242Z,4.23
2024-02-08T21:27:35.155Z,3.93
2024-02-08T21:30:22.796Z,3.97
2024-02-08T21:33:11.440Z,3.93
2024-02-08T21:36:04.507Z,3.90
2024-02-08T21:38:52.288Z,3.77
2024-02-08T21:41:42.739Z,3.90
2024-02-08T21:44:31.697Z,4.07
2024-02-08T21:47:19.563Z,3.80
2024-02-08T21:50:08.984Z,3.57
2024-02-08T21:52:58.467Z,3.53
2024-02-08T21:55:46.498Z,3.37
2024-02-08T21:58:35.409Z,3.03
2024-02-08T22:01:36.521Z,3.50
2024-02-08T22:04:24.918Z,3.30
2024-02-08T22:07:12.557Z,3.43
2024-02-08T22:10:01.358Z,3.47
2024-02-08T22:12:49.186Z,2.90
2024-02-08T22:15:36.887Z,3.60
2024-02-08T22:18:25.409Z,3.93
2024-02-08T22:21:17.637Z,3.37
2024-02-08T22:24:06.580Z,3.20
2024-02-08T22:26:55.177Z,3.00
2024-02-08T22:29:45.262Z,2.93
2024-02-08T22:32:36.832Z,2.60
2024-02-08T22:35:24.716Z,2.60
2024-02-08T22:38:13.466Z,2.57
2024-02-08T22:41:00.579Z,2.50
2024-02-08T22:43:49.440Z,2.60
2024-02-08T22:46:38.386Z,2.50
2024-02-08T22:49:27.724Z,2.30
2024-02-08T22:52:15.551Z,2.80
2024-02-08T22:55:04.527Z,2.50
2024-02-08T22:57:54.676Z,2.50
2024-02-08T23:01:01.291Z,1.80
2024-02-08T23:03:51.513Z,2.40
2024-02-08T23:06:43.257Z,2.10
2024-02-08T23:09:31.046Z,2.23
2024-02-08T23:12:18.385Z,2.37
2024-02-08T23:15:06.512Z,2.10
2024-02-08T23:17:58.636Z,2.40
2024-02-08T23:20:47.211Z,2.23
2024-02-08T23:23:38.440Z,2.43
2024-02-08T23:26:25.941Z,2.53
2024-02-08T23:29:13.976Z,2.30
2024-02-08T23:32:01.236Z,2.77
2024-02-08T23:34:52.772Z,2.33
2024-02-08T23:37:41.787Z,2.43
2024-02-08T23:40:30.393Z,2.50
2024-02-08T23:43:18.025Z,2.67
2024-02-08T23:46:09.030Z,2.23
2024-02-08T23:48:58.422Z,2.27
2024-02-08T23:51:48.692Z,2.63
2024-02-08T23:54:39.302Z,2.00
2024-02-08T23:57:29.098Z,2.50
